Time;durP1;ratioP1;P1;durP2;ratioP2;P2;SDS_P1;SDS_P2;PMS_P1;PMS_P2;Temp;Humidity;BMP_temperature;BMP_pressure;BME280_temperature;BME280_humidity;BME280_pressure;Samples;Min_cycle;Max_cycle;Signal;HPM_P1;HPM_P2
2021/12/12 00:02:32;;;;;;;22.53;9.10;;;;;;;2.83;100.00;102025.88;5011808;28;20022;-57
2021/12/12 00:04:59;;;;;;;18.77;8.50;;;;;;;2.86;100.00;102030.34;5011706;28;20482;-58
2021/12/12 00:07:30;;;;;;;19.13;9.10;;;;;;;2.85;100.00;102029.44;5011554;28;20042;-58
2021/12/12 00:10:03;;;;;;;16.98;8.15;;;;;;;2.87;100.00;102033.03;5011339;28;20029;-57
2021/12/12 00:12:32;;;;;;;20.30;8.50;;;;;;;2.88;100.00;102027.13;5011400;28;20112;-58
2021/12/12 00:14:57;;;;;;;20.00;9.00;;;;;;;2.90;100.00;102022.13;5011740;28;20351;-59
2021/12/12 00:17:24;;;;;;;16.87;8.07;;;;;;;2.92;100.00;102019.69;5011402;28;20045;-58
2021/12/12 00:19:51;;;;;;;14.23;8.20;;;;;;;2.94;100.00;102013.03;5011231;28;20013;-56
2021/12/12 00:22:23;;;;;;;18.27;8.17;;;;;;;2.96;100.00;102022.66;5011319;28;20117;-58
2021/12/12 00:24:49;;;;;;;20.30;9.50;;;;;;;2.96;100.00;102019.19;5011226;28;20018;-58
2021/12/12 00:27:15;;;;;;;19.70;7.93;;;;;;;2.99;100.00;102014.31;5011460;28;20466;-59
2021/12/12 00:29:41;;;;;;;18.03;8.47;;;;;;;2.99;100.00;102022.91;5011379;28;20068;-58
2021/12/12 00:32:11;;;;;;;20.27;8.20;;;;;;;3.02;100.00;102017.16;5010962;28;20189;-57
2021/12/12 00:34:45;;;;;;;16.77;7.50;;;;;;;3.05;100.00;102016.47;5010540;28;20073;-57
2021/12/12 00:37:11;;;;;;;16.43;7.93;;;;;;;3.05;100.00;102012.28;5011028;28;20522;-58
2021/12/12 00:39:39;;;;;;;19.23;7.87;;;;;;;3.05;100.00;101996.91;5011016;28;20022;-58
2021/12/12 00:42:16;;;;;;;23.23;8.40;;;;;;;3.09;100.00;102003.16;5010852;28;20058;-57
2021/12/12 00:44:45;;;;;;;16.50;7.17;;;;;;;3.08;100.00;102007.38;5010953;28;20068;-58
2021/12/12 00:47:11;;;;;;;19.47;7.87;;;;;;;3.11;100.00;102001.63;5010800;28;20493;-58
2021/12/12 00:49:39;;;;;;;15.97;7.57;;;;;;;3.12;100.00;101999.19;5010770;28;20316;-56
2021/12/12 00:52:07;;;;;;;19.13;7.57;;;;;;;3.12;100.00;101996.63;5010647;28;20080;-58
2021/12/12 00:54:33;;;;;;;22.17;8.23;;;;;;;3.14;100.00;101991.63;5009638;28;20069;-58
2021/12/12 00:57:00;;;;;;;19.70;7.87;;;;;;;3.18;100.00;102003.00;5010657;28;20360;-58
2021/12/12 00:59:27;;;;;;;17.73;7.40;;;;;;;3.18;100.00;101997.88;5010687;28;20025;-59
2021/12/12 01:01:53;;;;;;;21.87;7.83;;;;;;;3.16;100.00;101992.66;5010429;28;20087;-58
2021/12/12 01:04:22;;;;;;;22.67;8.27;;;;;;;3.17;100.00;101985.84;5010946;28;20572;-59
2021/12/12 01:06:50;;;;;;;19.47;7.93;;;;;;;3.17;100.00;101981.63;5010699;28;20022;-58
2021/12/12 01:09:22;;;;;;;18.90;8.33;;;;;;;3.17;100.00;101986.75;5010561;28;20103;-58
2021/12/12 01:11:51;;;;;;;24.67;8.60;;;;;;;3.15;100.00;101982.28;5010601;28;20478;-58
2021/12/12 01:14:22;;;;;;;18.27;8.60;;;;;;;3.14;100.00;101980.47;5010559;28;20029;-58
2021/12/12 01:16:59;;;;;;;16.63;7.82;;;;;;;3.12;100.00;101976.13;5010250;28;20025;-58
2021/12/12 01:19:33;;;;;;;22.97;8.50;;;;;;;3.10;100.00;101982.78;5010127;28;20037;-56
2021/12/12 01:22:04;;;;;;;20.70;9.63;;;;;;;3.07;100.00;101985.13;5010674;28;20036;-57
2021/12/12 01:24:35;;;;;;;17.20;8.50;;;;;;;3.08;100.00;101981.78;5010745;28;20029;-58
2021/12/12 01:27:03;;;;;;;15.02;7.93;;;;;;;3.09;100.00;101987.78;5010432;28;20101;-57
2021/12/12 01:29:29;;;;;;;21.83;7.90;;;;;;;3.09;100.00;101978.47;5010396;28;20044;-57
2021/12/12 01:31:59;;;;;;;23.40;9.80;;;;;;;3.10;100.00;101985.34;5010373;28;20470;-57
2021/12/12 01:34:29;;;;;;;22.80;8.77;;;;;;;3.10;100.00;101985.34;5010180;28;20030;-59
2021/12/12 01:37:33;;;;;;;20.73;8.53;;;;;;;3.12;100.00;101996.63;5010240;28;20064;-57
2021/12/12 01:40:17;;;;;;;23.07;9.63;;;;;;;3.15;100.00;101987.41;5009057;28;20172;-57
2021/12/12 01:42:48;;;;;;;20.47;8.80;;;;;;;3.16;100.00;101987.53;5010043;28;20034;-58
2021/12/12 01:45:20;;;;;;;23.15;9.70;;;;;;;3.16;100.00;101990.09;5010169;28;20402;-58
2021/12/12 01:47:50;;;;;;;24.77;9.60;;;;;;;3.15;100.00;101983.16;5009967;28;20052;-58
2021/12/12 01:50:25;;;;;;;18.33;9.10;;;;;;;3.16;100.00;101984.06;5009680;28;20041;-58
2021/12/12 01:52:53;;;;;;;24.30;9.53;;;;;;;3.17;100.00;101990.97;5010187;28;20041;-57
2021/12/12 01:55:27;;;;;;;25.73;9.80;;;;;;;3.16;100.00;101991.75;5009823;28;20025;-58
2021/12/12 01:57:56;;;;;;;21.73;9.87;;;;;;;3.18;100.00;101987.66;5010074;28;20034;-58
2021/12/12 02:00:37;;;;;;;24.60;10.47;;;;;;;3.20;100.00;101986.09;5010045;28;20100;-59
2021/12/12 02:03:03;;;;;;;;;;;;;;;3.18;100.00;101973.19;5010255;28;20030;-57
2021/12/12 02:05:30;;;;;;;19.57;9.97;;;;;;;3.18;100.00;101969.72;5009917;28;19909;-58
2021/12/12 02:08:01;;;;;;;22.70;9.33;;;;;;;3.19;100.00;101980.06;5009886;28;20034;-58
2021/12/12 02:10:33;;;;;;;27.23;9.40;;;;;;;3.22;100.00;101984.56;5008978;28;20470;-57
2021/12/12 02:13:05;;;;;;;;;;;;;;;3.19;100.00;101974.06;5012082;28;20478;-56
2021/12/12 02:15:33;;;;;;;21.80;9.70;;;;;;;3.21;100.00;101980.19;5014119;28;19916;-58
2021/12/12 02:18:01;;;;;;;23.23;9.90;;;;;;;3.22;100.00;101967.50;5013555;28;20036;-59
2021/12/12 02:20:38;;;;;;;27.80;10.63;;;;;;;3.23;100.00;101976.09;5013424;28;20041;-58
2021/12/12 02:23:41;;;;;;;24.87;9.83;;;;;;;3.24;100.00;101971.09;5013527;28;20486;-57
2021/12/12 02:37:07;;;;;;;22.83;10.33;;;;;;;3.34;100.00;101975.31;5011947;28;20053;-59
2021/12/12 02:39:33;;;;;;;23.47;10.90;;;;;;;3.34;100.00;101970.19;5012174;28;20490;-58
2021/12/12 02:42:03;;;;;;;24.03;10.13;;;;;;;3.38;100.00;101967.84;5011838;28;20144;-58
2021/12/12 02:44:31;;;;;;;23.43;10.50;;;;;;;3.39;100.00;101964.50;5011653;28;20444;-58
2021/12/12 02:47:00;;;;;;;23.27;10.57;;;;;;;3.40;100.00;101953.50;5012002;28;20052;-58
2021/12/12 02:49:41;;;;;;;19.40;9.60;;;;;;;3.42;100.00;101951.94;5011629;28;20367;-57
2021/12/12 02:52:12;;;;;;;19.20;9.07;;;;;;;3.45;100.00;101939.38;4991338;28;20032;-59
2021/12/12 02:54:38;;;;;;;23.38;9.05;;;;;;;3.46;100.00;101934.38;4992318;28;20046;-59
2021/12/12 02:57:04;;;;;;;20.60;9.87;;;;;;;3.46;100.00;101934.38;4992197;28;20022;-58
2021/12/12 02:59:30;;;;;;;24.10;9.40;;;;;;;3.50;100.00;101930.38;4991951;28;20022;-58
2021/12/12 03:02:05;;;;;;;17.00;9.20;;;;;;;3.50;100.00;101935.50;4992345;28;20040;-57
2021/12/12 03:04:33;;;;;;;22.47;9.13;;;;;;;3.51;100.00;101933.84;4992093;28;20034;-58
2021/12/12 03:07:00;;;;;;;22.03;9.07;;;;;;;3.53;100.00;101928.03;4992221;28;20018;-58
2021/12/12 03:09:33;;;;;;;22.70;9.87;;;;;;;3.55;100.00;101923.03;4992104;28;20019;-58
2021/12/12 03:12:07;;;;;;;19.87;9.27;;;;;;;3.53;100.00;101925.47;5007273;28;20033;-58
2021/12/12 03:14:34;;;;;;;20.73;9.57;;;;;;;3.55;100.00;101935.84;4991961;28;20037;-58
2021/12/12 03:17:07;;;;;;;28.57;10.17;;;;;;;3.55;100.00;101934.19;4991896;28;20391;-58
2021/12/12 03:19:33;;;;;;;25.27;10.63;;;;;;;3.54;100.00;101947.78;5009354;28;20117;-58
2021/12/12 03:21:58;;;;;;;29.53;11.23;;;;;;;3.55;100.00;101939.31;5011546;28;20104;-58
2021/12/12 03:24:26;;;;;;;21.27;10.97;;;;;;;3.57;100.00;101927.53;5010229;28;20419;-58
2021/12/12 03:26:56;;;;;;;24.03;11.20;;;;;;;3.60;100.00;101926.84;5011469;28;20025;-58
2021/12/12 03:29:22;;;;;;;27.77;11.83;;;;;;;3.60;100.00;101924.28;5011211;28;20117;-59
2021/12/12 03:31:57;;;;;;;27.50;11.97;;;;;;;3.62;100.00;101911.63;5011177;28;20033;-57
2021/12/12 03:34:27;;;;;;;26.33;11.33;;;;;;;3.64;100.00;101912.59;4973569;28;1094188;-58
2021/12/12 03:36:53;;;;;;;21.23;11.67;;;;;;;3.66;100.00;101901.69;5012399;28;20504;-57
2021/12/12 03:39:28;;;;;;;21.37;11.90;;;;;;;3.67;100.00;101897.47;5012291;28;20109;-58
2021/12/12 03:41:56;;;;;;;25.63;11.60;;;;;;;3.68;100.00;101895.03;5012488;28;20030;-58
2021/12/12 03:44:26;;;;;;;26.63;11.57;;;;;;;3.71;100.00;101894.34;5000768;28;20033;-58
2021/12/12 03:46:58;;;;;;;26.90;12.10;;;;;;;3.72;100.00;101901.28;4992307;28;20116;-58
2021/12/12 03:49:24;;;;;;;26.20;12.20;;;;;;;3.76;100.00;101897.28;5008663;28;20053;-56
2021/12/12 03:51:51;;;;;;;24.43;12.33;;;;;;;3.77;100.00;101892.28;5012225;28;20037;-58
2021/12/12 03:54:17;;;;;;;30.00;12.30;;;;;;;3.77;100.00;101884.59;5012134;28;20327;-57
2021/12/12 03:56:44;;;;;;;24.10;12.67;;;;;;;3.79;100.00;101887.25;5012026;28;20022;-57
2021/12/12 03:59:11;;;;;;;27.10;12.07;;;;;;;3.80;100.00;101894.16;5012282;28;20115;-58
2021/12/12 04:01:40;;;;;;;20.50;12.53;;;;;;;3.80;100.00;101889.94;5011960;28;20080;-59
2021/12/12 04:04:34;;;;;;;25.23;12.20;;;;;;;3.82;100.00;101898.66;5011888;28;20017;-57
2021/12/12 04:07:02;;;;;;;27.43;12.30;;;;;;;3.87;100.00;101893.00;5010309;28;20030;-58
2021/12/12 04:09:27;;;;;;;18.20;11.47;;;;;;;3.87;100.00;101900.69;5010446;28;20033;-59
2021/12/12 04:11:56;;;;;;;23.00;12.60;;;;;;;3.91;100.00;101902.69;5011728;28;20033;-57
2021/12/12 04:14:23;;;;;;;19.60;12.90;;;;;;;3.90;100.00;101908.59;5011942;28;20017;-58
2021/12/12 04:16:55;;;;;;;22.90;12.40;;;;;;;3.92;100.00;101900.22;5011528;28;20025;-59
2021/12/12 04:19:21;;;;;;;22.00;12.60;;;;;;;3.91;100.00;101915.50;5011358;28;20076;-58
2021/12/12 04:21:47;;;;;;;18.90;12.57;;;;;;;3.94;100.00;101903.81;5010040;28;20022;-59
2021/12/12 04:24:19;;;;;;;19.97;13.43;;;;;;;3.96;100.00;101909.97;5011355;28;20038;-58
2021/12/12 04:26:45;;;;;;;25.43;13.70;;;;;;;3.97;100.00;101913.44;5011573;28;20084;-59
2021/12/12 04:29:20;;;;;;;19.83;13.93;;;;;;;3.97;100.00;101909.16;5011124;28;20025;-57
2021/12/12 04:31:50;;;;;;;25.23;14.53;;;;;;;3.96;100.00;101901.34;5011127;28;20028;-57
2021/12/12 04:34:21;;;;;;;23.87;13.73;;;;;;;3.97;100.00;101910.84;5010856;28;20044;-58
2021/12/12 04:36:47;;;;;;;21.27;14.50;;;;;;;3.99;100.00;101901.63;5010341;28;20069;-59
2021/12/12 04:39:16;;;;;;;22.47;13.07;;;;;;;4.00;100.00;101905.94;5011173;28;20065;-58
2021/12/12 04:41:43;;;;;;;20.50;14.50;;;;;;;4.01;100.00;101899.16;5011081;28;20053;-59
2021/12/12 04:44:09;;;;;;;22.50;13.57;;;;;;;4.03;100.00;101901.03;5011191;28;20033;-57
2021/12/12 04:49:54;;;;;;;20.83;14.03;;;;;;;4.01;100.00;101909.41;5011254;28;20416;-59
2021/12/12 04:52:18;;;;;;;22.97;15.03;;;;;;;4.01;100.00;101915.44;5011229;28;20568;-59
2021/12/12 04:54:53;;;;;;;22.50;14.70;;;;;;;4.04;100.00;101915.69;5010621;28;20029;-59
2021/12/12 04:57:28;;;;;;;18.73;14.50;;;;;;;4.06;100.00;101919.25;5010828;28;20167;-58
2021/12/12 05:00:13;;;;;;;22.80;14.30;;;;;;;4.07;100.00;101915.91;5011299;28;20266;-59
2021/12/12 05:02:55;;;;;;;20.00;14.50;;;;;;;4.08;100.00;101906.53;5010421;28;20403;-58
2021/12/12 05:05:28;;;;;;;20.60;14.97;;;;;;;4.08;100.00;101917.69;5010416;28;20482;-59
2021/12/12 05:08:04;;;;;;;21.60;15.37;;;;;;;4.07;100.00;101915.91;5010592;28;20390;-59
2021/12/12 05:10:50;;;;;;;18.20;14.97;;;;;;;4.09;100.00;101923.72;5010817;28;20486;-59
2021/12/12 05:13:24;;;;;;;19.07;13.97;;;;;;;4.10;100.00;101925.53;5010496;28;20026;-59
2021/12/12 05:15:53;;;;;;;19.73;14.53;;;;;;;4.10;100.00;101924.63;5010635;28;20030;-58
2021/12/12 05:18:29;;;;;;;20.27;15.13;;;;;;;4.12;100.00;101923.94;5010235;28;20029;-58
2021/12/12 05:21:08;;;;;;;17.47;15.17;;;;;;;4.13;100.00;101930.88;5010658;28;20034;-59
2021/12/12 05:23:35;;;;;;;17.93;15.43;;;;;;;4.13;100.00;101924.84;5010453;28;20367;-59
2021/12/12 05:26:05;;;;;;;25.27;16.00;;;;;;;4.13;100.00;101929.97;5009853;28;20593;-59
2021/12/12 05:28:35;;;;;;;18.05;15.57;;;;;;;4.13;100.00;101940.25;4991022;28;20045;-58
2021/12/12 05:31:02;;;;;;;23.07;15.97;;;;;;;4.14;100.00;101932.66;5010220;28;20037;-58
2021/12/12 05:33:29;;;;;;;20.63;16.40;;;;;;;4.17;100.00;101921.75;5009972;28;20030;-59
2021/12/12 05:35:56;;;;;;;25.47;16.20;;;;;;;4.18;100.00;101923.50;5009851;28;20124;-59
2021/12/12 05:38:23;;;;;;;17.80;15.17;;;;;;;4.19;100.00;101920.19;4991226;28;20506;-60
2021/12/12 05:40:49;;;;;;;20.70;14.60;;;;;;;4.20;100.00;101928.00;4990423;28;20497;-57
2021/12/12 05:43:17;;;;;;;20.47;16.37;;;;;;;4.22;100.00;101940.94;4990832;28;20026;-58
2021/12/12 05:45:45;;;;;;;19.83;14.93;;;;;;;4.24;100.00;101924.00;4990427;28;20322;-58
2021/12/12 05:48:10;;;;;;;22.17;14.97;;;;;;;4.28;100.00;101931.13;4990662;28;20250;-58
2021/12/12 05:50:38;;;;;;;17.77;15.07;;;;;;;4.30;100.00;101939.84;4993041;28;20040;-59
2021/12/12 05:53:04;;;;;;;19.13;13.57;;;;;;;4.31;100.00;101944.22;4990424;28;20023;-59
2021/12/12 05:55:33;;;;;;;20.50;13.47;;;;;;;4.33;100.00;101939.19;5009420;28;20505;-58
2021/12/12 05:58:00;;;;;;;16.67;13.17;;;;;;;4.35;100.00;101940.22;5009375;28;20128;-59
2021/12/12 06:00:35;;;;;;;20.40;14.40;;;;;;;4.35;100.00;101941.88;5009286;28;20033;-59
2021/12/12 06:03:04;;;;;;;17.37;14.37;;;;;;;4.38;100.00;101944.66;5008719;28;20025;-58
2021/12/12 06:05:31;;;;;;;15.47;13.73;;;;;;;4.39;100.00;101941.34;5009307;28;20053;-59
2021/12/12 06:07:58;;;;;;;19.47;13.60;;;;;;;4.43;100.00;101943.31;5009709;28;20506;-59
2021/12/12 06:10:24;;;;;;;18.40;13.13;;;;;;;4.45;100.00;101939.22;5008891;28;20038;-59
2021/12/12 06:12:51;;;;;;;16.70;13.27;;;;;;;4.46;100.00;101951.28;5009283;28;20101;-59
2021/12/12 06:15:21;;;;;;;22.88;13.18;;;;;;;4.48;100.00;101953.97;5009060;28;20493;-59
2021/12/12 06:17:48;;;;;;;18.33;13.45;;;;;;;4.51;100.00;101960.22;5008300;28;20219;-59
2021/12/12 06:20:14;;;;;;;15.57;12.52;;;;;;;4.51;100.00;101959.31;5008681;28;20029;-60
2021/12/12 06:22:40;;;;;;;16.63;13.73;;;;;;;4.57;100.00;101964.88;5009333;28;20113;-59
2021/12/12 06:25:07;;;;;;;15.20;12.83;;;;;;;4.60;100.00;101961.66;5009307;28;20525;-57
2021/12/12 06:27:35;;;;;;;17.27;13.50;;;;;;;4.61;100.00;101963.44;5009067;28;20033;-59
2021/12/12 06:30:00;;;;;;;16.63;13.88;;;;;;;4.61;100.00;101961.78;5006041;28;20022;-57
2021/12/12 06:32:26;;;;;;;19.03;15.17;;;;;;;4.65;100.00;101955.19;5008670;28;20033;-58
2021/12/12 06:34:56;;;;;;;16.73;13.90;;;;;;;4.64;100.00;101953.44;5008611;28;20053;-58
2021/12/12 06:37:22;;;;;;;15.43;13.50;;;;;;;4.65;100.00;101950.06;5008883;28;20030;-59
2021/12/12 06:39:49;;;;;;;15.60;13.95;;;;;;;4.67;100.00;101951.97;5006727;28;20032;-59
2021/12/12 06:42:14;;;;;;;17.33;14.15;;;;;;;4.71;100.00;101965.03;5009099;28;20467;-58
2021/12/12 06:44:42;;;;;;;21.53;14.63;;;;;;;4.72;100.00;101953.97;5008875;28;20071;-58
2021/12/12 06:47:10;;;;;;;17.43;14.93;;;;;;;4.73;100.00;101959.22;5008675;28;20029;-59
2021/12/12 06:49:37;;;;;;;19.95;15.23;;;;;;;4.75;100.00;101964.50;5007093;28;20026;-59
2021/12/12 06:52:05;;;;;;;21.05;15.75;;;;;;;4.77;100.00;101957.78;5009144;28;20504;-59
2021/12/12 06:54:31;;;;;;;20.75;16.55;;;;;;;4.78;100.00;101963.06;5008294;28;20109;-59
2021/12/12 06:57:00;;;;;;;24.38;15.90;;;;;;;4.80;100.00;101964.03;5007714;28;20438;-59
2021/12/12 06:59:29;;;;;;;20.53;15.93;;;;;;;4.83;100.00;101965.94;5010795;28;20034;-57
2021/12/12 07:01:56;;;;;;;19.75;14.90;;;;;;;4.83;100.00;101967.63;5012459;28;20112;-58
2021/12/12 07:04:23;;;;;;;20.90;16.80;;;;;;;4.89;100.00;101962.94;5011852;28;20049;-59
2021/12/12 07:06:57;;;;;;;21.92;15.82;;;;;;;4.90;100.00;101964.72;5012260;28;20152;-58
2021/12/12 07:09:25;;;;;;;18.92;16.55;;;;;;;4.92;100.00;101973.44;5012004;28;20481;-59
2021/12/12 07:11:54;;;;;;;22.02;16.98;;;;;;;4.97;100.00;101966.94;5011975;28;20038;-60
2021/12/12 07:14:19;;;;;;;21.05;17.95;;;;;;;4.98;100.00;101963.63;5011008;28;20092;-58
2021/12/12 07:16:45;;;;;;;18.75;15.70;;;;;;;5.01;100.00;101963.84;5012166;28;20018;-60
2021/12/12 07:19:14;;;;;;;19.60;15.93;;;;;;;5.05;100.00;101967.53;5011961;28;20036;-58
2021/12/12 07:21:42;;;;;;;21.75;16.95;;;;;;;5.05;100.00;101965.81;5011501;28;20378;-58
2021/12/12 07:24:08;;;;;;;22.53;17.00;;;;;;;5.10;100.00;101967.84;5012471;28;20121;-60
2021/12/12 07:26:34;;;;;;;24.53;16.40;;;;;;;5.14;100.00;101977.56;5011605;28;20458;-59
2021/12/12 07:29:01;;;;;;;21.98;15.75;;;;;;;5.15;100.00;101981.91;5011676;28;20037;-59
2021/12/12 07:31:30;;;;;;;21.92;16.05;;;;;;;5.15;100.00;101969.06;5011659;28;20026;-59
2021/12/12 07:33:58;;;;;;;18.27;15.23;;;;;;;5.17;100.00;101962.38;5011968;28;20653;-58
2021/12/12 07:36:25;;;;;;;22.75;15.93;;;;;;;5.18;100.00;101966.72;5011515;28;20448;-59
2021/12/12 07:38:56;;;;;;;20.42;16.65;;;;;;;5.20;100.00;101970.28;5003690;28;20341;-58
2021/12/12 07:41:26;;;;;;;20.58;15.82;;;;;;;5.21;100.00;101972.09;5008965;28;20116;-57
2021/12/12 07:43:53;;;;;;;20.95;15.95;;;;;;;5.21;100.00;101974.66;5010628;28;20029;-60
2021/12/12 07:46:19;;;;;;;25.38;17.17;;;;;;;5.26;100.00;101969.84;5010083;28;20393;-59
2021/12/12 07:48:47;;;;;;;22.83;16.98;;;;;;;5.27;100.00;101982.81;5008833;28;20018;-60
2021/12/12 07:51:13;;;;;;;19.67;16.67;;;;;;;5.29;100.00;101976.09;5008136;28;20022;-59
2021/12/12 07:53:39;;;;;;;24.25;17.20;;;;;;;5.32;100.00;101987.41;5008374;28;20030;-58
2021/12/12 07:56:05;;;;;;;23.92;17.55;;;;;;;5.32;100.00;101980.59;5008588;28;20414;-60
2021/12/12 07:58:30;;;;;;;26.27;18.80;;;;;;;5.36;100.00;101976.56;5009055;28;20030;-59
2021/12/12 08:00:58;;;;;;;22.63;17.50;;;;;;;5.36;100.00;101984.28;5009081;28;20419;-59
2021/12/12 08:03:29;;;;;;;23.05;17.42;;;;;;;5.39;100.00;101982.81;5009068;28;20180;-59
2021/12/12 08:05:54;;;;;;;22.58;17.13;;;;;;;5.39;100.00;101994.78;5009011;28;20021;-59
2021/12/12 08:08:23;;;;;;;22.02;18.27;;;;;;;5.40;100.00;101996.53;5011108;28;20042;-57
2021/12/12 08:10:49;;;;;;;23.58;18.88;;;;;;;5.41;100.00;102006.94;5007564;28;20490;-59
2021/12/12 08:13:15;;;;;;;22.13;18.80;;;;;;;5.42;100.00;102007.84;5005056;28;20501;-59
2021/12/12 08:15:41;;;;;;;28.27;19.67;;;;;;;5.44;100.00;102013.97;5009271;28;20474;-58
2021/12/12 08:18:11;;;;;;;26.83;20.17;;;;;;;5.47;100.00;102011.63;5010173;28;20034;-60
2021/12/12 08:20:38;;;;;;;30.15;19.92;;;;;;;5.50;100.00;102022.16;5011172;28;20022;-59
2021/12/12 08:23:04;;;;;;;31.38;20.85;;;;;;;5.52;100.00;102020.56;5011317;28;20045;-59
2021/12/12 08:25:31;;;;;;;26.13;19.90;;;;;;;5.56;100.00;102020.81;5011520;28;20034;-59
2021/12/12 08:28:02;;;;;;;28.15;20.20;;;;;;;5.59;100.00;102026.16;5011064;28;20052;-59
2021/12/12 08:30:30;;;;;;;29.45;21.65;;;;;;;5.59;100.00;102029.63;5011216;28;20076;-59
2021/12/12 08:32:56;;;;;;;28.52;20.13;;;;;;;5.63;100.00;102034.19;5011182;28;20026;-59
2021/12/12 08:35:24;;;;;;;30.00;22.17;;;;;;;5.65;100.00;102031.72;5010527;28;20168;-59
2021/12/12 08:37:50;;;;;;;31.15;21.75;;;;;;;5.68;100.00;102043.94;5004068;28;20056;-58
2021/12/12 08:40:22;;;;;;;36.67;21.67;;;;;;;5.68;100.00;102042.25;4998248;28;20044;-55
2021/12/12 08:42:48;;;;;;;28.98;21.60;;;;;;;5.70;100.00;102050.94;5010615;28;20099;-58
2021/12/12 08:45:16;;;;;;;33.55;23.10;;;;;;;5.73;100.00;102045.13;5010971;28;20026;-58
2021/12/12 08:47:42;;;;;;;36.75;24.15;;;;;;;5.74;100.00;102042.69;5009856;28;20022;-58
2021/12/12 08:50:13;;;;;;;31.55;22.63;;;;;;;5.74;100.00;102031.47;5010801;28;20036;-58
2021/12/12 08:52:41;;;;;;;30.48;21.80;;;;;;;5.75;100.00;102043.56;5003618;28;20088;-58
2021/12/12 08:55:16;;;;;;;34.00;22.15;;;;;;;5.75;100.00;102041.00;5010150;28;20040;-58
2021/12/12 08:57:52;;;;;;;37.05;22.80;;;;;;;5.79;100.00;102044.69;5011319;28;20116;-57
2021/12/12 09:00:21;;;;;;;32.72;23.70;;;;;;;5.80;100.00;102051.63;5010048;28;20084;-58
2021/12/12 09:02:47;;;;;;;37.28;25.20;;;;;;;5.82;100.00;102052.63;5008748;28;20029;-57
2021/12/12 09:05:22;;;;;;;39.30;26.33;;;;;;;5.82;100.00;102055.19;5010595;28;20028;-58
2021/12/12 09:07:51;;;;;;;40.47;25.55;;;;;;;5.85;100.00;102056.31;5010307;28;20048;-58
2021/12/12 09:10:41;;;;;;;39.45;26.55;;;;;;;5.89;100.00;102044.56;5010465;28;20072;-59
2021/12/12 09:13:21;;;;;;;33.10;24.90;;;;;;;5.90;100.00;102059.19;5009911;28;20030;-58
2021/12/12 09:16:03;;;;;;;39.30;24.58;;;;;;;5.93;100.00;102066.25;5009580;28;20038;-59
2021/12/12 09:18:37;;;;;;;34.05;24.00;;;;;;;5.95;100.00;102072.41;5009445;28;20108;-59
2021/12/12 09:21:12;;;;;;;35.03;23.55;;;;;;;5.97;100.00;102073.41;5002968;28;20390;-59
2021/12/12 09:23:48;;;;;;;34.10;23.92;;;;;;;5.97;100.00;102071.69;5009764;28;20438;-58
2021/12/12 09:26:21;;;;;;;35.10;24.08;;;;;;;6.01;100.00;102080.53;5010002;28;20463;-58
2021/12/12 09:29:32;;;;;;;40.47;23.98;;;;;;;5.99;100.00;102075.28;5009818;28;20077;-57
2021/12/12 09:32:11;;;;;;;40.70;24.33;;;;;;;6.01;100.00;102084.00;5023194;28;20050;-56
2021/12/12 09:35:11;;;;;;;37.88;23.83;;;;;;;6.05;100.00;102089.38;5015413;28;20034;-58
2021/12/12 09:37:42;;;;;;;32.72;21.13;;;;;;;6.06;100.00;102093.78;4895305;29;20131;-57
2021/12/12 09:40:08;;;;;;;;;;;;;;;6.07;100.00;102090.41;4892576;29;20057;-59
2021/12/12 09:42:52;;;;;;;38.45;24.60;;;;;;;6.11;100.00;102097.56;4892295;29;19919;-58
2021/12/12 09:45:36;;;;;;;36.60;23.02;;;;;;;6.11;100.00;102100.16;4899566;29;20457;-58
2021/12/12 09:51:49;;;;;;;39.00;24.58;;;;;;;6.13;100.00;102104.59;4910359;29;20102;-57
2021/12/12 09:54:20;;;;;;;43.95;24.13;;;;;;;6.13;100.00;102104.59;4891715;29;20594;-58
2021/12/12 09:56:56;;;;;;;34.63;22.27;;;;;;;6.13;100.00;102102.03;4898923;29;20028;-59
2021/12/12 09:59:55;;;;;;;34.72;21.50;;;;;;;6.18;100.00;102102.38;4905003;29;20178;-58
2021/12/12 10:02:38;;;;;;;31.95;22.67;;;;;;;6.20;100.00;102108.53;4892061;29;20365;-59
2021/12/12 10:05:40;;;;;;;37.22;21.45;;;;;;;6.21;100.00;102102.56;4891396;29;20036;-59
2021/12/12 10:08:15;;;;;;;34.25;21.60;;;;;;;6.22;100.00;102096.63;4908813;29;20071;-58
2021/12/12 10:11:01;;;;;;;34.08;22.77;;;;;;;6.23;100.00;102094.97;4910318;29;20589;-59
2021/12/12 10:13:45;;;;;;;37.28;22.52;;;;;;;6.27;100.00;102096.06;4963465;28;20087;-59
2021/12/12 10:16:20;;;;;;;35.58;21.52;;;;;;;6.30;100.00;102101.41;5008899;28;20022;-57
2021/12/12 10:18:45;;;;;;;38.83;24.65;;;;;;;6.31;100.00;102087.78;5009290;28;20057;-58
2021/12/12 10:21:20;;;;;;;37.63;22.67;;;;;;;6.36;100.00;102100.19;5008610;28;20053;-59
2021/12/12 10:24:10;;;;;;;37.28;23.42;;;;;;;6.38;100.00;102101.97;5009028;28;20053;-59
2021/12/12 10:26:40;;;;;;;34.88;22.13;;;;;;;6.40;100.00;102101.31;5009452;28;20538;-59
2021/12/12 10:29:17;;;;;;;39.90;22.70;;;;;;;6.42;100.00;102104.84;5009104;28;20045;-57
2021/12/12 10:31:52;;;;;;;34.97;22.85;;;;;;;6.46;100.00;102104.28;5009394;28;20615;-58
2021/12/12 10:34:25;;;;;;;31.17;22.58;;;;;;;6.46;100.00;102095.66;5010122;28;20187;-58
2021/12/12 10:37:03;;;;;;;33.67;24.08;;;;;;;6.47;100.00;102098.38;5012882;28;20054;-59
2021/12/12 10:39:32;;;;;;;38.17;24.85;;;;;;;6.48;100.00;102097.56;5005563;28;20052;-58
2021/12/12 10:42:14;;;;;;;38.25;23.45;;;;;;;6.51;100.00;102098.56;5012473;28;20113;-58
2021/12/12 10:44:48;;;;;;;34.42;23.80;;;;;;;6.54;100.00;102102.25;5012944;28;20524;-58
2021/12/12 10:47:30;;;;;;;41.53;26.83;;;;;;;6.55;100.00;102098.00;5012712;28;20470;-59
2021/12/12 10:49:58;;;;;;;36.25;24.77;;;;;;;6.56;100.00;102099.78;5013007;28;20277;-58
2021/12/12 10:52:33;;;;;;;39.63;24.77;;;;;;;6.57;100.00;102104.13;5011372;28;20040;-59
2021/12/12 10:55:05;;;;;;;37.60;23.42;;;;;;;6.57;100.00;102102.44;5012636;28;20083;-58
2021/12/12 10:57:38;;;;;;;38.75;25.92;;;;;;;6.59;100.00;102105.13;5005371;28;20296;-58
2021/12/12 11:00:11;;;;;;;37.22;25.70;;;;;;;6.61;100.00;102103.56;5012530;28;20117;-58
2021/12/12 11:03:05;;;;;;;40.10;26.15;;;;;;;6.64;100.00;102103.75;5005063;28;20497;-58
2021/12/12 11:05:34;;;;;;;42.80;27.73;;;;;;;6.65;100.00;102100.41;4970266;28;20503;-59
2021/12/12 11:08:06;;;;;;;41.22;27.50;;;;;;;6.68;100.00;102103.19;4970940;28;20151;-57
2021/12/12 11:10:38;;;;;;;37.40;24.88;;;;;;;6.69;100.00;102097.22;4970450;28;20538;-59
2021/12/12 11:13:27;;;;;;;40.25;25.60;;;;;;;6.70;100.00;102093.88;4970717;28;20089;-57
2021/12/12 11:16:15;;;;;;;33.17;23.88;;;;;;;6.72;100.00;102101.72;4970347;28;20058;-58
2021/12/12 11:18:47;;;;;;;34.97;23.92;;;;;;;6.72;100.00;102097.47;4970623;28;20046;-57
2021/12/12 11:21:22;;;;;;;30.48;24.30;;;;;;;6.76;100.00;102097.66;4954299;28;20039;-58
2021/12/12 11:23:55;;;;;;;35.03;25.73;;;;;;;6.78;100.00;102096.09;4969890;28;20086;-58
2021/12/12 11:26:26;;;;;;;36.33;25.50;;;;;;;6.82;100.00;102095.50;4970396;28;20035;-57
2021/12/12 11:28:59;;;;;;;32.50;23.10;;;;;;;6.85;100.00;102094.00;4970194;28;20245;-59
2021/12/12 11:31:41;;;;;;;35.55;26.02;;;;;;;6.89;100.00;102097.69;4970394;28;20031;-58
2021/12/12 11:34:07;;;;;;;34.88;25.55;;;;;;;6.90;100.00;102099.50;4970287;28;20172;-58
2021/12/12 11:36:56;;;;;;;35.40;24.42;;;;;;;6.91;100.00;102082.34;4969701;28;20094;-58
2021/12/12 11:39:54;;;;;;;31.02;24.13;;;;;;;6.91;100.00;102093.53;4966492;28;20053;-58
2021/12/12 11:42:27;;;;;;;30.52;23.25;;;;;;;6.93;100.00;102103.94;4980425;28;20042;-58
2021/12/12 11:45:01;;;;;;;30.50;23.40;;;;;;;6.93;100.00;102101.38;5011249;28;20431;-58
2021/12/12 11:47:35;;;;;;;24.85;19.90;;;;;;;6.96;100.00;102102.47;5005334;28;20034;-57
2021/12/12 11:50:25;;;;;;;23.17;20.27;;;;;;;6.96;100.00;102097.31;5011045;28;20022;-58